METAR Data
IDs: Format: Raw Decoded Include TAF

Data at: 0319 UTC 25 Feb 2021

SAZS 250300Z 18005KT CAVOK 15/04 Q1016